Aniak, AK

7:24 PM AKDT on August 01, 2014 (GMT -0800)
Aniak (PANI) Elev 85 ft | 61.58 °N, 159.54 °W | Change Station

Current weather conditions updated 8 minutes ago

Overcast
Overcast
57 °F
Feels Like 57 °F
N
4
Wind Variable Wind from WSW

Tomorrow is forecast to be Warmer than today. Chance of showers tomorrow night.

Today
High -- | Low -- °F
--% Chance of Precip.
Yesterday
High -- | Low -- °F
Precip. -- in
6:08 AM 11:18 PM
Waxing Crescent, 31% visible
Pressure 30.08 in
Visibility 2.5 miles
Clouds Mostly Cloudy 700 ft
Mostly Cloudy 1200 ft
Overcast 2300 ft
Dew Point 55 °F
Humidity 94%
Rainfall 0.34 in
Snow Depth Not available.
UV 1 out of 12
Pollen Not available.
Air Quality Not available.
Flu Activity Not available.
METAR PANI 020316Z AUTO 24003KT 2 1/2SM BKN007 BKN012 OVC023 14/13 A3008 RMK AO1

More Conditions Fewer Conditions

Pressure 30.08 in
Visibility 2.5 miles
Clouds Mostly Cloudy 700 ft
Mostly Cloudy 1200 ft
Overcast 2300 ft
Dew Point 55 °F
Humidity 94%
Rainfall 0.34 in
Snow Depth Not available.
UV 1 out of 12
Pollen Not available.
Air Quality Not available.
Flu Activity Not available.
METAR PANI 020316Z AUTO 24003KT 2 1/2SM BKN007 BKN012 OVC023 14/13 A3008 RMK AO1

More Conditions Fewer Conditions

10-Day Weather Forecast

Almanac

Astronomy

Aug. 01, 2014 Rise Set
Actual Time 6:08 AM AKDT 11:18 PM AKDT
Civil Twilight 5:00 AM AKDT 12:25 AM AKDT
Nautical Twilight 3:16 AM AKDT 2:11 AM AKDT
Astronomical Twilight Sun does not rise Sun does not rise
Moon 1:39 PM AKDT (8/1) No Moon Set
Length of Visible Light 19h 24m
Length of Day
17h 10m
Tomorrow will be 5m 23s shorter.
Waxing Crescent, 31% of the Moon is Illuminated
Today
Waxing Crescent
Aug 3
First Quarter
Aug 10
Full
Aug 17
Last Quarter
Aug 25
New

Today's Extremes

State Highs State Lows

Community

WunderPhotos

Upload Photos

1,739,822 photos uploaded!

Nearby

Snow Depth

Station Depth Elevation
Rocky Point 1 in 500 ft
Mcneil Canyon 1 in 1320 ft
Susitna Valley High 2 in 375 ft
Point Mackenzie 0 in 200 ft
MF Bradley River 231 in 2300 ft

Earthquake Activity

City Distance Mag. Time & Date
No recent earthquake activity has been reported nearby.
Minimum magnitude displayed is 2.5.

Coastal Water Temperatures

Place Temperature
No Stations Reporting

Nearby Weather Stations

There are no personal weather stations in this area.